»·PEaware :: N123RG KTOA-KSBD

N123RG :: KTOA-KSBD

FLIGHT INFORMATION

Flight Status: Arrived
Operator: Privately registered:
United States
More flights under this callsign
Pilot: Anonymous 23223 (23223)
Aircraft: CESSNA 172 SKYHAWK
(C172)
More flights by this aircraft type
Origin: KTOA Zamperini
United States
Destination: KSBD San Bernardino Intl
United States
More flights between these airports :: More routes between these airports
Route: +LAX170 LIMBO V64 SLI V8 PDZ
File this flight plan on PilotEdge
Remarks:
Altitude:
(Current/Filed)
6,000ft
Speed:
(Current/Filed)
135kts
Departed: 08-Dec-19 12:51 PM
Arrived: 08-Dec-19 01:23 PM
Distance/Time
Traveled:
57nm/0:32
Distance/Time
To Go:
Arrived

Flight Plot

Page will automatically refresh every two minutes.


Map Options




Map Legend


Flown Route
Filed Route
Departure Airport
Arrival Airport
Navaid (VOR, NDB)
Fix

Horizontal Profiles

Position Reports

Time Latitude Longitude Heading Altitude Ground
Speed
08-Dec-19 12:33 33.798083 -118.336721 34 106ft 0kts
08-Dec-19 12:34 33.798083 -118.336720 34 106ft 0kts
08-Dec-19 12:35 33.798084 -118.336720 34 106ft 0kts
08-Dec-19 12:36 33.798084 -118.336720 34 106ft 0kts
08-Dec-19 12:37 33.798085 -118.336719 34 106ft 0kts
08-Dec-19 12:38 33.798085 -118.336719 34 106ft 0kts
08-Dec-19 12:39 33.798085 -118.336719 34 106ft 0kts
08-Dec-19 12:40 33.798086 -118.336718 34 106ft 0kts
08-Dec-19 12:41 33.798086 -118.336718 34 106ft 0kts
08-Dec-19 12:42 33.798087 -118.336717 34 106ft 0kts
08-Dec-19 12:43 33.798087 -118.336717 34 106ft 0kts
08-Dec-19 12:44 33.798087 -118.336717 34 106ft 0kts
08-Dec-19 12:45 33.798089 -118.336715 34 106ft 0kts
08-Dec-19 12:46 33.798091 -118.336714 34 106ft 0kts
08-Dec-19 12:47 33.798277 -118.335211 123 106ft 10kts
08-Dec-19 12:48 33.799017 -118.333587 38 106ft 0kts
08-Dec-19 12:49 33.799018 -118.333587 38 106ft 0kts
08-Dec-19 12:50 33.801652 -118.335990 307 106ft 60kts
08-Dec-19 12:51 33.814836 -118.359917 293 1234ft 100kts
08-Dec-19 12:52 33.831341 -118.386943 281 2677ft 83kts
08-Dec-19 12:53 33.812461 -118.376529 145 3463ft 112kts
08-Dec-19 12:54 33.787593 -118.349344 142 4172ft 116kts
08-Dec-19 12:55 33.764086 -118.322603 140 4867ft 131kts
08-Dec-19 12:56 33.734668 -118.291134 144 4813ft 148kts
08-Dec-19 12:57 33.710743 -118.253045 103 4890ft 153kts
08-Dec-19 12:58 33.703932 -118.202252 103 4873ft 153kts
08-Dec-19 12:59 33.699463 -118.151434 78 4879ft 156kts
08-Dec-19 13:00 33.716157 -118.102846 68 4874ft 158kts
08-Dec-19 13:01 33.733512 -118.054408 68 4874ft 157kts
08-Dec-19 13:02 33.750823 -118.005866 68 4873ft 157kts
08-Dec-19 13:03 33.768063 -117.957424 69 4873ft 157kts
08-Dec-19 13:04 33.785278 -117.908978 68 4872ft 158kts
08-Dec-19 13:05 33.802566 -117.860245 68 4874ft 157kts
08-Dec-19 13:06 33.819733 -117.811798 68 4874ft 157kts
08-Dec-19 13:07 33.836936 -117.763165 68 4874ft 158kts
08-Dec-19 13:08 33.854135 -117.714474 69 4874ft 158kts
08-Dec-19 13:09 33.871260 -117.665907 68 4874ft 158kts
08-Dec-19 13:10 33.888456 -117.617084 68 4845ft 159kts
08-Dec-19 13:11 33.906529 -117.565677 68 4284ft 172kts
08-Dec-19 13:12 33.927839 -117.520575 23 4367ft 144kts
08-Dec-19 13:13 33.966081 -117.502394 19 4373ft 150kts
08-Dec-19 13:14 34.007403 -117.483268 18 3701ft 150kts
08-Dec-19 13:15 34.031953 -117.449667 66 3163ft 126kts
08-Dec-19 13:16 34.043854 -117.414630 74 3163ft 105kts
08-Dec-19 13:17 34.053171 -117.382568 69 3159ft 97kts
08-Dec-19 13:18 34.061176 -117.351128 101 2865ft 110kts
08-Dec-19 13:19 34.073000 -117.315376 74 2143ft 109kts
08-Dec-19 13:20 34.081486 -117.284385 63 1727ft 97kts
08-Dec-19 13:21 34.089547 -117.254617 74 1296ft 92kts
08-Dec-19 13:22 34.094064 -117.241716 5 1160ft 3kts
08-Dec-19 13:23 34.094086 -117.241714 4 1160ft 0kts
08-Dec-19 13:24 34.095640 -117.241861 336 1160ft 23kts

Navigation Log

Ident Type
Flight plan parsing failed, navigation log unavailable